Hickory Ridge, Arkansas
Current Conditions -  °F | °C
As of 2:56 PM on Thursday 27 Nov 2014 (Local Time) from KM19 Reporting Station
Clear Clear  
Wind Chill: 47°   Ceiling: Unl
Heat Index: 47°   Visibility: 10mi
Dew Point: 27°   Wind: 0mph
Humidity: 46%   Direction: NA
Pressure: 30.48"   Gusts: NA
Location:  35.4°N, 91°W
Report Text: KM19 272056Z AUTO 00000KT 10SM CLR 08/M03 A3048 RMK AO2 56016 T00831027 SLP323
Loading
Personal Weather Stations






























Interactive Weather Map New forecast layout! Learn more

10-Day Weather Forecast

Advertisements
Track Severe Weather on mobile